Curdsville, KY

5:57 PM CDT on July 06, 2015 (GMT -0500)
Diamond Lake Resort | | Change Station
CLOSE
Current Station
Personal Weather Station
Location: Owensboro, KY
Elevation: 466 ft
Nearby Weather Stations

Elev 466 ft 37.64 °N, 87.39 °W | Updated 7 minutes ago

Partly Cloudy
Partly Cloudy
87.1 °F
Feels Like 94 °F
N
6.0
Wind Variable Wind from SSE
Gusts 6.0 mph

Today
High -- | Low -- °F
--% Chance of Precip.
Yesterday
High -- | Low -- °F
Precip. -- in
5:33 AM 8:14 PM
Waning Gibbous, 71% visible
Pressure 30.00 in
Visibility 10.0 miles
Clouds Scattered Clouds 3300 ft
Heat Index 94 °F
Dew Point 72 °F
Humidity 62%
Rainfall 0.00 in
Snow Depth Not available.
UV 3 out of 12
Pollen 3.90 out of 12
Air Quality Not available.
Flu Activity Not available.
METAR KOWB 062156Z 21010KT 10SM SCT033 31/23 A3001 RMK AO2 T03050233 SLP159

More Conditions Fewer Conditions

Pressure 30.00 in
Visibility 10.0 miles
Clouds Scattered Clouds 3300 ft
Heat Index 94 °F
Dew Point 72 °F
Humidity 62%
Rainfall 0.00 in
Snow Depth Not available.
UV 3 out of 12
Pollen 3.90 out of 12
Air Quality Not available.
Flu Activity Not available.
METAR KOWB 062156Z 21010KT 10SM SCT033 31/23 A3001 RMK AO2 T03050233 SLP159

More Conditions Fewer Conditions

10-Day Weather Forecast

×

Almanac

Astronomy

Jul. 06, 2015 Rise Set
Actual Time
Civil Twilight
Nautical Twilight
Astronomical Twilight
Moon
Length of Visible Light
Length of Day
Tomorrow will be .
, % of the Moon is Illuminated

Today's Extremes

State Highs State Lows

Community

WunderPhotos

Upload Photos

1,835,667 photos uploaded!

WunderBlogs® & News

Nearby

Air Quality

  Air Quality AQ Index Pollutant
Not available.

Snow Depth

Station Depth Elevation

Earthquake Activity

City Distance Mag. Time & Date
Minimum magnitude displayed is 2.5.

Coastal Water Temperatures

Place Temperature

Stations

Nearby Weather Stations

Station Location Temp. Windchill Dew Point Humidity Wind Precip. Elev Updated Type